Uniondale, Indiana
Current Conditions -  °F | °C
As of 6:54 PM on Friday 31 Oct 2014 (Local Time) from KFWA Reporting Station
Light Snow Light Snow  
Wind Chill: 24°   Ceiling: 1200
Heat Index: 35°   Visibility: 7mi
Dew Point: 32°   Wind: 20mph
Humidity: 89%   Direction: 350°N
Pressure: 30.05"   Gusts: 32mph
Location:  40.83°N, 85.24°W
Report Text: KFWA 312254Z 35017G28KT 7SM -SN BKN012 OVC019 02/00 A3005 RMK AO2 PK WND 36030/2236 SLP180 SNB46RAB20E46PLE20 P0001 T00170000
Loading
Personal Weather Stations






























Interactive Weather Map
Tropical Storm Tracking
New forecast layout! Learn more

10-Day Weather Forecast

Advertisements
Track Severe Weather on mobile